Mwanza Airport

Airport
ICAO code: 
HTMW
IATA Code: 
MWZ
Summary
ICAO Region: 
AFI
Territory: 
Location: 
Mwanza, Mwanza Region
Serving: 
Mwanza
Elevation: 
3763 ft
Coordinates: 
Aerial View: 
2° 26' 39.984" S, 32° 55' 59.988" E
Metar
Observation
HTMW 162200Z 18011KT 9999 FEW021 FEW022CB SCT100 23/17 Q1017 NOSIG
Station
Mwanza
Date/Time
2022-01-16 22:00:00
Wind direction
180°
Wind speed
11 kts
Lowest cloud amount
few clouds
Temperature
23°C
Dew point
17°C
Humidity
69%
QNH
1017 hPa
Weather condition
n/a

Mwanza International Airport is a major regional airport in northern Tanzania serving the city of Mwanza. It is located near the shores of Lake Victoria.

Climatology

Tropical Savanna climate (Köppen climate classification Aw)

Runways

Designator Length Width Surface Rops
12/30 3113 45 ASP No/No
Airport map: 
Aerial View: 

SKYbrary Partners:

Safety knowledge contributed by: